sensor_id;sensor_type;location;lat;lon;timestamp;P1;durP1;ratioP1;P2;durP2;ratioP2
11151;SDS011;5630;49.342;10.802;2022-08-03T00:01:29;2.50;;;2.30;;
11151;SDS011;5630;49.342;10.802;2022-08-03T00:03:55;2.73;;;2.40;;
11151;SDS011;5630;49.342;10.802;2022-08-03T00:06:21;3.30;;;1.90;;
11151;SDS011;5630;49.342;10.802;2022-08-03T00:08:47;2.27;;;2.07;;
11151;SDS011;5630;49.342;10.802;2022-08-03T00:11:12;3.83;;;2.10;;
11151;SDS011;5630;49.342;10.802;2022-08-03T00:13:38;3.53;;;2.00;;
11151;SDS011;5630;49.342;10.802;2022-08-03T00:16:04;2.83;;;2.03;;
11151;SDS011;5630;49.342;10.802;2022-08-03T00:18:29;2.43;;;2.10;;
11151;SDS011;5630;49.342;10.802;2022-08-03T00:20:55;3.30;;;2.07;;
11151;SDS011;5630;49.342;10.802;2022-08-03T00:23:20;3.80;;;2.30;;
11151;SDS011;5630;49.342;10.802;2022-08-03T00:25:46;2.40;;;2.20;;
11151;SDS011;5630;49.342;10.802;2022-08-03T00:28:12;3.40;;;2.30;;
11151;SDS011;5630;49.342;10.802;2022-08-03T00:30:37;2.30;;;2.10;;
11151;SDS011;5630;49.342;10.802;2022-08-03T00:33:03;4.87;;;2.30;;
11151;SDS011;5630;49.342;10.802;2022-08-03T00:35:29;2.70;;;2.20;;
11151;SDS011;5630;49.342;10.802;2022-08-03T00:37:55;2.73;;;2.30;;
11151;SDS011;5630;49.342;10.802;2022-08-03T00:40:22;3.27;;;2.10;;
11151;SDS011;5630;49.342;10.802;2022-08-03T00:42:49;2.53;;;2.30;;
11151;SDS011;5630;49.342;10.802;2022-08-03T00:45:26;2.27;;;2.07;;
11151;SDS011;5630;49.342;10.802;2022-08-03T00:47:56;3.30;;;2.20;;
11151;SDS011;5630;49.342;10.802;2022-08-03T00:50:24;2.60;;;2.40;;
11151;SDS011;5630;49.342;10.802;2022-08-03T00:52:51;2.63;;;2.43;;
11151;SDS011;5630;49.342;10.802;2022-08-03T00:55:18;3.23;;;2.43;;
11151;SDS011;5630;49.342;10.802;2022-08-03T00:57:43;2.70;;;2.33;;
11151;SDS011;5630;49.342;10.802;2022-08-03T01:00:10;2.53;;;2.33;;
11151;SDS011;5630;49.342;10.802;2022-08-03T01:02:37;2.73;;;2.53;;
11151;SDS011;5630;49.342;10.802;2022-08-03T01:05:03;2.63;;;2.43;;
11151;SDS011;5630;49.342;10.802;2022-08-03T01:07:40;3.40;;;2.60;;
11151;SDS011;5630;49.342;10.802;2022-08-03T01:18:07;3.40;;;2.27;;
11151;SDS011;5630;49.342;10.802;2022-08-03T01:20:39;2.47;;;2.27;;
11151;SDS011;5630;49.342;10.802;2022-08-03T01:32:04;4.80;;;2.40;;
11151;SDS011;5630;49.342;10.802;2022-08-03T01:34:36;2.53;;;2.33;;
11151;SDS011;5630;49.342;10.802;2022-08-03T01:37:07;2.77;;;2.37;;
11151;SDS011;5630;49.342;10.802;2022-08-03T01:39:34;3.73;;;2.40;;
11151;SDS011;5630;49.342;10.802;2022-08-03T01:42:03;2.40;;;2.20;;
11151;SDS011;5630;49.342;10.802;2022-08-03T01:44:36;3.20;;;2.10;;
11151;SDS011;5630;49.342;10.802;2022-08-03T01:47:04;4.40;;;2.40;;
11151;SDS011;5630;49.342;10.802;2022-08-03T01:49:32;3.50;;;2.30;;
11151;SDS011;5630;49.342;10.802;2022-08-03T01:52:03;2.50;;;2.30;;
11151;SDS011;5630;49.342;10.802;2022-08-03T01:54:31;3.87;;;2.60;;
11151;SDS011;5630;49.342;10.802;2022-08-03T01:57:00;2.30;;;2.13;;
11151;SDS011;5630;49.342;10.802;2022-08-03T01:59:26;2.50;;;2.30;;
11151;SDS011;5630;49.342;10.802;2022-08-03T02:01:54;3.20;;;2.43;;
11151;SDS011;5630;49.342;10.802;2022-08-03T02:04:23;2.77;;;2.50;;
11151;SDS011;5630;49.342;10.802;2022-08-03T02:06:51;2.77;;;2.30;;
11151;SDS011;5630;49.342;10.802;2022-08-03T02:09:19;4.60;;;2.63;;
11151;SDS011;5630;49.342;10.802;2022-08-03T02:11:46;2.67;;;2.47;;
11151;SDS011;5630;49.342;10.802;2022-08-03T02:14:14;2.97;;;2.60;;
11151;SDS011;5630;49.342;10.802;2022-08-03T02:16:41;3.03;;;2.53;;
11151;SDS011;5630;49.342;10.802;2022-08-03T02:19:08;5.10;;;2.80;;
11151;SDS011;5630;49.342;10.802;2022-08-03T02:21:35;2.80;;;2.50;;
11151;SDS011;5630;49.342;10.802;2022-08-03T02:24:02;3.90;;;2.80;;
11151;SDS011;5630;49.342;10.802;2022-08-03T02:26:29;3.23;;;2.70;;
11151;SDS011;5630;49.342;10.802;2022-08-03T02:28:57;2.87;;;2.57;;
11151;SDS011;5630;49.342;10.802;2022-08-03T02:31:27;2.73;;;2.53;;
11151;SDS011;5630;49.342;10.802;2022-08-03T02:34:05;5.93;;;2.50;;
11151;SDS011;5630;49.342;10.802;2022-08-03T02:36:36;3.70;;;2.77;;
11151;SDS011;5630;49.342;10.802;2022-08-03T02:39:03;4.10;;;2.60;;
11151;SDS011;5630;49.342;10.802;2022-08-03T02:41:34;3.20;;;2.77;;
11151;SDS011;5630;49.342;10.802;2022-08-03T02:44:03;3.27;;;2.70;;
11151;SDS011;5630;49.342;10.802;2022-08-03T02:46:35;3.03;;;2.80;;
11151;SDS011;5630;49.342;10.802;2022-08-03T02:49:03;5.03;;;2.70;;
11151;SDS011;5630;49.342;10.802;2022-08-03T02:51:31;2.83;;;2.63;;
11151;SDS011;5630;49.342;10.802;2022-08-03T02:54:00;3.10;;;2.77;;
11151;SDS011;5630;49.342;10.802;2022-08-03T02:56:27;5.40;;;3.03;;
11151;SDS011;5630;49.342;10.802;2022-08-03T02:58:54;3.40;;;2.80;;
11151;SDS011;5630;49.342;10.802;2022-08-03T03:01:22;3.57;;;2.80;;
11151;SDS011;5630;49.342;10.802;2022-08-03T03:03:49;3.60;;;2.93;;
11151;SDS011;5630;49.342;10.802;2022-08-03T03:06:17;4.13;;;2.93;;
11151;SDS011;5630;49.342;10.802;2022-08-03T03:08:44;5.87;;;2.83;;
11151;SDS011;5630;49.342;10.802;2022-08-03T03:11:11;3.00;;;2.60;;
11151;SDS011;5630;49.342;10.802;2022-08-03T03:13:40;3.23;;;2.93;;
11151;SDS011;5630;49.342;10.802;2022-08-03T03:16:08;3.53;;;2.70;;
11151;SDS011;5630;49.342;10.802;2022-08-03T03:18:37;4.43;;;2.90;;
11151;SDS011;5630;49.342;10.802;2022-08-03T03:21:04;3.17;;;2.87;;
11151;SDS011;5630;49.342;10.802;2022-08-03T03:23:33;3.47;;;3.03;;
11151;SDS011;5630;49.342;10.802;2022-08-03T03:26:02;3.87;;;2.90;;
11151;SDS011;5630;49.342;10.802;2022-08-03T03:28:29;3.03;;;2.60;;
11151;SDS011;5630;49.342;10.802;2022-08-03T03:30:55;3.27;;;2.80;;
11151;SDS011;5630;49.342;10.802;2022-08-03T03:33:21;5.13;;;2.63;;
11151;SDS011;5630;49.342;10.802;2022-08-03T03:35:47;6.27;;;3.10;;
11151;SDS011;5630;49.342;10.802;2022-08-03T03:38:13;3.03;;;2.80;;
11151;SDS011;5630;49.342;10.802;2022-08-03T03:40:39;3.50;;;2.90;;
11151;SDS011;5630;49.342;10.802;2022-08-03T03:43:06;3.10;;;2.73;;
11151;SDS011;5630;49.342;10.802;2022-08-03T03:45:33;3.10;;;2.80;;
11151;SDS011;5630;49.342;10.802;2022-08-03T03:48:00;3.30;;;2.93;;
11151;SDS011;5630;49.342;10.802;2022-08-03T03:50:27;3.03;;;2.80;;
11151;SDS011;5630;49.342;10.802;2022-08-03T03:52:56;3.90;;;2.70;;
11151;SDS011;5630;49.342;10.802;2022-08-03T03:55:21;3.10;;;2.80;;
11151;SDS011;5630;49.342;10.802;2022-08-03T03:57:47;3.40;;;3.10;;
11151;SDS011;5630;49.342;10.802;2022-08-03T04:00:13;6.03;;;3.10;;
11151;SDS011;5630;49.342;10.802;2022-08-03T04:02:40;3.47;;;3.13;;
11151;SDS011;5630;49.342;10.802;2022-08-03T04:05:06;4.00;;;3.10;;
11151;SDS011;5630;49.342;10.802;2022-08-03T04:07:58;2.97;;;2.67;;
11151;SDS011;5630;49.342;10.802;2022-08-03T04:11:06;3.53;;;3.00;;
11151;SDS011;5630;49.342;10.802;2022-08-03T04:13:49;3.23;;;2.93;;
11151;SDS011;5630;49.342;10.802;2022-08-03T04:16:17;3.40;;;3.10;;
11151;SDS011;5630;49.342;10.802;2022-08-03T04:18:45;5.47;;;3.00;;
11151;SDS011;5630;49.342;10.802;2022-08-03T04:21:16;3.47;;;3.17;;
11151;SDS011;5630;49.342;10.802;2022-08-03T04:23:46;3.10;;;2.80;;
11151;SDS011;5630;49.342;10.802;2022-08-03T04:26:15;3.43;;;3.13;;
11151;SDS011;5630;49.342;10.802;2022-08-03T04:28:45;5.90;;;3.50;;
11151;SDS011;5630;49.342;10.802;2022-08-03T04:31:13;4.40;;;3.13;;
11151;SDS011;5630;49.342;10.802;2022-08-03T04:33:40;7.63;;;3.40;;
11151;SDS011;5630;49.342;10.802;2022-08-03T04:36:08;3.87;;;3.30;;
11151;SDS011;5630;49.342;10.802;2022-08-03T04:38:38;3.53;;;3.20;;
11151;SDS011;5630;49.342;10.802;2022-08-03T04:41:06;6.00;;;3.30;;
11151;SDS011;5630;49.342;10.802;2022-08-03T04:43:32;4.33;;;3.60;;
11151;SDS011;5630;49.342;10.802;2022-08-03T04:45:59;4.57;;;3.63;;
11151;SDS011;5630;49.342;10.802;2022-08-03T04:48:26;6.23;;;3.30;;
11151;SDS011;5630;49.342;10.802;2022-08-03T04:50:52;4.57;;;3.67;;
11151;SDS011;5630;49.342;10.802;2022-08-03T04:53:18;5.20;;;3.70;;
11151;SDS011;5630;49.342;10.802;2022-08-03T04:55:44;6.50;;;4.10;;
11151;SDS011;5630;49.342;10.802;2022-08-03T04:58:09;4.43;;;3.77;;
11151;SDS011;5630;49.342;10.802;2022-08-03T05:00:36;5.30;;;3.87;;
11151;SDS011;5630;49.342;10.802;2022-08-03T05:03:02;4.70;;;3.80;;
11151;SDS011;5630;49.342;10.802;2022-08-03T05:05:27;6.00;;;3.67;;
11151;SDS011;5630;49.342;10.802;2022-08-03T05:07:53;5.60;;;4.03;;
11151;SDS011;5630;49.342;10.802;2022-08-03T05:10:20;5.47;;;4.23;;
11151;SDS011;5630;49.342;10.802;2022-08-03T05:12:46;4.10;;;3.70;;
11151;SDS011;5630;49.342;10.802;2022-08-03T05:15:12;4.70;;;3.90;;
11151;SDS011;5630;49.342;10.802;2022-08-03T05:17:38;5.40;;;2.43;;
11151;SDS011;5630;49.342;10.802;2022-08-03T05:20:04;3.27;;;2.70;;
11151;SDS011;5630;49.342;10.802;2022-08-03T05:22:30;3.90;;;2.90;;
11151;SDS011;5630;49.342;10.802;2022-08-03T05:24:56;4.80;;;2.90;;
11151;SDS011;5630;49.342;10.802;2022-08-03T05:27:22;4.30;;;3.13;;
11151;SDS011;5630;49.342;10.802;2022-08-03T05:29:48;3.87;;;3.37;;
11151;SDS011;5630;49.342;10.802;2022-08-03T05:32:15;5.90;;;3.40;;
11151;SDS011;5630;49.342;10.802;2022-08-03T05:34:41;4.20;;;3.00;;
11151;SDS011;5630;49.342;10.802;2022-08-03T05:37:07;5.17;;;3.07;;
11151;SDS011;5630;49.342;10.802;2022-08-03T05:39:33;4.30;;;3.43;;
11151;SDS011;5630;49.342;10.802;2022-08-03T05:41:59;3.97;;;3.13;;
11151;SDS011;5630;49.342;10.802;2022-08-03T05:44:26;4.40;;;3.30;;
11151;SDS011;5630;49.342;10.802;2022-08-03T05:46:51;3.80;;;3.40;;
11151;SDS011;5630;49.342;10.802;2022-08-03T05:49:17;3.63;;;3.00;;
11151;SDS011;5630;49.342;10.802;2022-08-03T05:51:43;5.53;;;3.30;;
11151;SDS011;5630;49.342;10.802;2022-08-03T05:54:09;3.87;;;3.23;;
11151;SDS011;5630;49.342;10.802;2022-08-03T05:56:35;5.87;;;3.23;;
11151;SDS011;5630;49.342;10.802;2022-08-03T05:59:01;6.83;;;3.43;;
11151;SDS011;5630;49.342;10.802;2022-08-03T06:01:26;9.27;;;3.20;;
11151;SDS011;5630;49.342;10.802;2022-08-03T06:03:52;4.50;;;3.23;;
11151;SDS011;5630;49.342;10.802;2022-08-03T06:06:17;4.80;;;2.90;;
11151;SDS011;5630;49.342;10.802;2022-08-03T06:08:44;4.23;;;3.00;;
11151;SDS011;5630;49.342;10.802;2022-08-03T06:11:10;6.17;;;3.40;;
11151;SDS011;5630;49.342;10.802;2022-08-03T06:13:36;6.67;;;3.37;;
11151;SDS011;5630;49.342;10.802;2022-08-03T06:16:03;4.73;;;3.50;;
11151;SDS011;5630;49.342;10.802;2022-08-03T06:18:28;5.83;;;3.37;;
11151;SDS011;5630;49.342;10.802;2022-08-03T06:20:54;7.33;;;3.63;;
11151;SDS011;5630;49.342;10.802;2022-08-03T06:23:20;6.60;;;3.40;;
11151;SDS011;5630;49.342;10.802;2022-08-03T06:25:46;4.20;;;3.80;;
11151;SDS011;5630;49.342;10.802;2022-08-03T06:28:12;5.23;;;3.90;;
11151;SDS011;5630;49.342;10.802;2022-08-03T06:30:42;4.90;;;3.40;;
11151;SDS011;5630;49.342;10.802;2022-08-03T06:33:08;3.77;;;3.37;;
11151;SDS011;5630;49.342;10.802;2022-08-03T06:35:34;4.77;;;3.80;;
11151;SDS011;5630;49.342;10.802;2022-08-03T06:37:59;4.53;;;3.30;;
11151;SDS011;5630;49.342;10.802;2022-08-03T06:40:25;5.57;;;3.80;;
11151;SDS011;5630;49.342;10.802;2022-08-03T06:42:58;7.37;;;3.90;;
11151;SDS011;5630;49.342;10.802;2022-08-03T06:45:26;5.83;;;4.20;;
11151;SDS011;5630;49.342;10.802;2022-08-03T06:47:59;4.23;;;3.83;;
11151;SDS011;5630;49.342;10.802;2022-08-03T06:50:28;6.30;;;3.60;;
11151;SDS011;5630;49.342;10.802;2022-08-03T06:52:54;4.43;;;3.60;;
11151;SDS011;5630;49.342;10.802;2022-08-03T06:55:20;6.17;;;3.93;;
11151;SDS011;5630;49.342;10.802;2022-08-03T06:57:45;4.67;;;3.60;;
11151;SDS011;5630;49.342;10.802;2022-08-03T07:00:11;3.90;;;3.60;;
11151;SDS011;5630;49.342;10.802;2022-08-03T07:02:38;4.23;;;3.20;;
11151;SDS011;5630;49.342;10.802;2022-08-03T07:05:04;5.50;;;3.40;;
11151;SDS011;5630;49.342;10.802;2022-08-03T07:07:30;4.57;;;3.75;;
11151;SDS011;5630;49.342;10.802;2022-08-03T07:09:56;5.07;;;3.63;;
11151;SDS011;5630;49.342;10.802;2022-08-03T07:12:21;4.30;;;3.57;;
11151;SDS011;5630;49.342;10.802;2022-08-03T07:14:47;5.07;;;3.30;;
11151;SDS011;5630;49.342;10.802;2022-08-03T07:17:13;4.13;;;3.70;;
11151;SDS011;5630;49.342;10.802;2022-08-03T07:19:38;5.03;;;3.87;;
11151;SDS011;5630;49.342;10.802;2022-08-03T07:22:04;8.27;;;3.80;;
11151;SDS011;5630;49.342;10.802;2022-08-03T07:24:30;5.63;;;3.60;;
11151;SDS011;5630;49.342;10.802;2022-08-03T07:26:55;4.50;;;3.20;;
11151;SDS011;5630;49.342;10.802;2022-08-03T07:29:21;7.43;;;3.60;;
11151;SDS011;5630;49.342;10.802;2022-08-03T07:31:47;3.90;;;3.20;;
11151;SDS011;5630;49.342;10.802;2022-08-03T07:34:12;4.93;;;3.23;;
11151;SDS011;5630;49.342;10.802;2022-08-03T07:36:38;5.57;;;3.37;;
11151;SDS011;5630;49.342;10.802;2022-08-03T07:39:03;3.97;;;2.90;;
11151;SDS011;5630;49.342;10.802;2022-08-03T07:41:29;5.50;;;3.13;;
11151;SDS011;5630;49.342;10.802;2022-08-03T07:43:55;3.93;;;3.40;;
11151;SDS011;5630;49.342;10.802;2022-08-03T07:46:21;5.47;;;3.33;;
11151;SDS011;5630;49.342;10.802;2022-08-03T07:48:47;3.20;;;2.90;;
11151;SDS011;5630;49.342;10.802;2022-08-03T07:51:12;4.43;;;3.33;;
11151;SDS011;5630;49.342;10.802;2022-08-03T07:53:38;7.57;;;3.23;;
11151;SDS011;5630;49.342;10.802;2022-08-03T07:56:04;6.00;;;3.17;;
11151;SDS011;5630;49.342;10.802;2022-08-03T07:58:29;4.03;;;3.20;;
11151;SDS011;5630;49.342;10.802;2022-08-03T08:00:55;3.13;;;2.83;;
11151;SDS011;5630;49.342;10.802;2022-08-03T08:03:21;4.17;;;2.80;;
11151;SDS011;5630;49.342;10.802;2022-08-03T08:05:46;4.53;;;2.97;;
11151;SDS011;5630;49.342;10.802;2022-08-03T08:08:12;6.33;;;2.90;;
11151;SDS011;5630;49.342;10.802;2022-08-03T08:10:38;4.13;;;2.80;;
11151;SDS011;5630;49.342;10.802;2022-08-03T08:13:03;6.90;;;2.90;;
11151;SDS011;5630;49.342;10.802;2022-08-03T08:15:29;4.50;;;2.77;;
11151;SDS011;5630;49.342;10.802;2022-08-03T08:17:56;6.50;;;2.90;;
11151;SDS011;5630;49.342;10.802;2022-08-03T08:20:33;4.97;;;3.00;;
11151;SDS011;5630;49.342;10.802;2022-08-03T08:23:02;4.13;;;2.93;;
11151;SDS011;5630;49.342;10.802;2022-08-03T08:25:31;3.70;;;2.80;;
11151;SDS011;5630;49.342;10.802;2022-08-03T08:27:57;3.60;;;2.33;;
11151;SDS011;5630;49.342;10.802;2022-08-03T08:30:26;2.83;;;2.43;;
11151;SDS011;5630;49.342;10.802;2022-08-03T08:32:52;3.43;;;2.67;;
11151;SDS011;5630;49.342;10.802;2022-08-03T08:35:18;4.97;;;2.17;;
11151;SDS011;5630;49.342;10.802;2022-08-03T08:37:44;4.10;;;2.40;;
11151;SDS011;5630;49.342;10.802;2022-08-03T08:40:10;4.10;;;2.70;;
11151;SDS011;5630;49.342;10.802;2022-08-03T08:42:37;4.27;;;2.87;;
11151;SDS011;5630;49.342;10.802;2022-08-03T08:45:04;5.70;;;2.70;;
11151;SDS011;5630;49.342;10.802;2022-08-03T08:47:32;4.43;;;2.60;;
11151;SDS011;5630;49.342;10.802;2022-08-03T08:50:01;5.67;;;2.50;;
11151;SDS011;5630;49.342;10.802;2022-08-03T08:52:28;3.03;;;2.73;;
11151;SDS011;5630;49.342;10.802;2022-08-03T08:54:55;4.07;;;2.33;;
11151;SDS011;5630;49.342;10.802;2022-08-03T08:57:33;5.70;;;2.53;;
11151;SDS011;5630;49.342;10.802;2022-08-03T09:00:02;3.20;;;2.90;;
11151;SDS011;5630;49.342;10.802;2022-08-03T09:02:29;5.20;;;2.80;;
11151;SDS011;5630;49.342;10.802;2022-08-03T09:04:55;5.30;;;2.43;;
11151;SDS011;5630;49.342;10.802;2022-08-03T09:07:22;4.57;;;2.60;;
11151;SDS011;5630;49.342;10.802;2022-08-03T09:09:48;2.70;;;2.50;;
11151;SDS011;5630;49.342;10.802;2022-08-03T09:12:13;3.13;;;2.10;;
11151;SDS011;5630;49.342;10.802;2022-08-03T09:14:39;2.60;;;2.40;;
11151;SDS011;5630;49.342;10.802;2022-08-03T09:17:05;2.50;;;2.30;;
11151;SDS011;5630;49.342;10.802;2022-08-03T09:19:31;4.20;;;2.40;;
11151;SDS011;5630;49.342;10.802;2022-08-03T09:22:07;2.80;;;2.60;;
11151;SDS011;5630;49.342;10.802;2022-08-03T09:24:52;3.27;;;2.40;;
11151;SDS011;5630;49.342;10.802;2022-08-03T09:27:19;3.70;;;2.30;;
11151;SDS011;5630;49.342;10.802;2022-08-03T09:29:48;6.37;;;2.17;;
11151;SDS011;5630;49.342;10.802;2022-08-03T09:32:15;3.63;;;2.20;;
11151;SDS011;5630;49.342;10.802;2022-08-03T09:34:48;2.20;;;2.00;;
11151;SDS011;5630;49.342;10.802;2022-08-03T09:37:15;4.07;;;2.10;;
11151;SDS011;5630;49.342;10.802;2022-08-03T09:39:43;3.00;;;2.10;;
11151;SDS011;5630;49.342;10.802;2022-08-03T09:42:10;5.00;;;2.10;;
11151;SDS011;5630;49.342;10.802;2022-08-03T09:44:44;4.37;;;2.30;;
11151;SDS011;5630;49.342;10.802;2022-08-03T09:47:12;4.70;;;2.47;;
11151;SDS011;5630;49.342;10.802;2022-08-03T09:49:39;4.90;;;2.40;;
11151;SDS011;5630;49.342;10.802;2022-08-03T09:52:15;3.07;;;2.33;;
11151;SDS011;5630;49.342;10.802;2022-08-03T09:54:43;4.43;;;2.10;;
11151;SDS011;5630;49.342;10.802;2022-08-03T09:57:24;2.40;;;2.20;;
11151;SDS011;5630;49.342;10.802;2022-08-03T09:59:51;2.17;;;1.97;;
11151;SDS011;5630;49.342;10.802;2022-08-03T10:02:22;3.87;;;2.20;;
11151;SDS011;5630;49.342;10.802;2022-08-03T10:04:49;2.50;;;2.03;;
11151;SDS011;5630;49.342;10.802;2022-08-03T10:07:17;2.43;;;2.03;;
11151;SDS011;5630;49.342;10.802;2022-08-03T10:09:59;4.47;;;2.10;;
11151;SDS011;5630;49.342;10.802;2022-08-03T10:12:26;2.20;;;2.00;;
11151;SDS011;5630;49.342;10.802;2022-08-03T10:14:53;3.60;;;2.20;;
11151;SDS011;5630;49.342;10.802;2022-08-03T10:17:19;2.20;;;2.00;;
11151;SDS011;5630;49.342;10.802;2022-08-03T10:19:46;2.03;;;1.83;;
11151;SDS011;5630;49.342;10.802;2022-08-03T10:22:14;2.00;;;1.90;;
11151;SDS011;5630;49.342;10.802;2022-08-03T10:25:28;9.07;;;2.10;;
11151;SDS011;5630;49.342;10.802;2022-08-03T10:27:41;3.40;;;1.60;;
11151;SDS011;5630;49.342;10.802;2022-08-03T10:30:11;6.67;;;1.87;;
11151;SDS011;5630;49.342;10.802;2022-08-03T10:35:16;1.63;;;1.40;;
11151;SDS011;5630;49.342;10.802;2022-08-03T10:37:46;3.63;;;1.60;;
11151;SDS011;5630;49.342;10.802;2022-08-03T10:40:18;1.90;;;1.70;;
11151;SDS011;5630;49.342;10.802;2022-08-03T10:42:46;3.37;;;1.50;;
11151;SDS011;5630;49.342;10.802;2022-08-03T10:45:19;3.70;;;1.67;;
11151;SDS011;5630;49.342;10.802;2022-08-03T10:47:47;2.83;;;1.43;;
11151;SDS011;5630;49.342;10.802;2022-08-03T10:50:14;3.53;;;1.50;;
11151;SDS011;5630;49.342;10.802;2022-08-03T10:52:54;3.33;;;1.50;;
11151;SDS011;5630;49.342;10.802;2022-08-03T10:55:34;1.67;;;1.57;;
11151;SDS011;5630;49.342;10.802;2022-08-03T11:01:10;1.80;;;1.50;;
11151;SDS011;5630;49.342;10.802;2022-08-03T11:06:18;1.77;;;1.50;;
11151;SDS011;5630;49.342;10.802;2022-08-03T11:08:50;1.97;;;1.60;;
11151;SDS011;5630;49.342;10.802;2022-08-03T11:11:38;2.23;;;1.50;;
11151;SDS011;5630;49.342;10.802;2022-08-03T11:16:34;3.40;;;1.50;;
11151;SDS011;5630;49.342;10.802;2022-08-03T11:19:10;2.53;;;1.60;;
11151;SDS011;5630;49.342;10.802;2022-08-03T11:35:14;4.40;;;1.70;;
11151;SDS011;5630;49.342;10.802;2022-08-03T11:43:03;3.53;;;1.40;;
11151;SDS011;5630;49.342;10.802;2022-08-03T11:45:33;2.67;;;1.40;;
11151;SDS011;5630;49.342;10.802;2022-08-03T11:48:01;1.50;;;1.40;;
11151;SDS011;5630;49.342;10.802;2022-08-03T11:50:38;1.10;;;1.10;;
11151;SDS011;5630;49.342;10.802;2022-08-03T11:53:04;3.60;;;1.40;;
11151;SDS011;5630;49.342;10.802;2022-08-03T11:55:31;4.70;;;1.50;;
11151;SDS011;5630;49.342;10.802;2022-08-03T11:58:00;5.03;;;1.30;;
11151;SDS011;5630;49.342;10.802;2022-08-03T12:02:56;1.70;;;1.30;;
11151;SDS011;5630;49.342;10.802;2022-08-03T12:05:36;1.80;;;1.30;;
11151;SDS011;5630;49.342;10.802;2022-08-03T12:08:07;1.97;;;1.10;;
11151;SDS011;5630;49.342;10.802;2022-08-03T12:10:34;1.87;;;1.20;;
11151;SDS011;5630;49.342;10.802;2022-08-03T12:13:01;1.23;;;1.10;;
11151;SDS011;5630;49.342;10.802;2022-08-03T12:15:30;3.00;;;1.30;;
11151;SDS011;5630;49.342;10.802;2022-08-03T12:17:59;3.40;;;1.30;;
11151;SDS011;5630;49.342;10.802;2022-08-03T12:20:27;4.27;;;1.30;;
11151;SDS011;5630;49.342;10.802;2022-08-03T12:22:57;1.50;;;1.20;;
11151;SDS011;5630;49.342;10.802;2022-08-03T12:25:27;1.43;;;1.10;;
11151;SDS011;5630;49.342;10.802;2022-08-03T12:27:53;3.63;;;1.40;;
11151;SDS011;5630;49.342;10.802;2022-08-03T12:30:35;2.83;;;1.20;;
11151;SDS011;5630;49.342;10.802;2022-08-03T12:33:14;1.70;;;1.33;;
11151;SDS011;5630;49.342;10.802;2022-08-03T12:38:30;3.53;;;1.40;;
11151;SDS011;5630;49.342;10.802;2022-08-03T12:41:01;1.50;;;1.20;;
11151;SDS011;5630;49.342;10.802;2022-08-03T12:43:32;2.03;;;1.30;;
11151;SDS011;5630;49.342;10.802;2022-08-03T12:46:08;1.50;;;1.10;;
11151;SDS011;5630;49.342;10.802;2022-08-03T12:51:22;1.57;;;1.47;;
11151;SDS011;5630;49.342;10.802;2022-08-03T12:53:51;1.20;;;1.10;;
11151;SDS011;5630;49.342;10.802;2022-08-03T12:56:18;2.40;;;1.40;;
11151;SDS011;5630;49.342;10.802;2022-08-03T12:58:44;2.50;;;1.40;;
11151;SDS011;5630;49.342;10.802;2022-08-03T13:01:11;1.40;;;1.30;;
11151;SDS011;5630;49.342;10.802;2022-08-03T13:03:38;1.97;;;1.40;;
11151;SDS011;5630;49.342;10.802;2022-08-03T13:06:09;2.87;;;1.40;;
11151;SDS011;5630;49.342;10.802;2022-08-03T13:08:39;2.17;;;1.20;;
11151;SDS011;5630;49.342;10.802;2022-08-03T13:11:22;1.40;;;1.23;;
11151;SDS011;5630;49.342;10.802;2022-08-03T13:13:52;4.13;;;1.30;;
11151;SDS011;5630;49.342;10.802;2022-08-03T13:16:18;4.37;;;1.50;;
11151;SDS011;5630;49.342;10.802;2022-08-03T13:18:47;1.67;;;1.13;;
11151;SDS011;5630;49.342;10.802;2022-08-03T13:21:14;1.50;;;1.20;;
11151;SDS011;5630;49.342;10.802;2022-08-03T13:23:40;1.67;;;1.30;;
11151;SDS011;5630;49.342;10.802;2022-08-03T13:26:07;1.50;;;1.40;;
11151;SDS011;5630;49.342;10.802;2022-08-03T13:28:33;2.50;;;1.20;;
11151;SDS011;5630;49.342;10.802;2022-08-03T13:30:58;3.83;;;1.40;;
11151;SDS011;5630;49.342;10.802;2022-08-03T13:33:25;4.13;;;1.20;;
11151;SDS011;5630;49.342;10.802;2022-08-03T13:35:52;2.07;;;1.30;;
11151;SDS011;5630;49.342;10.802;2022-08-03T13:38:17;1.90;;;1.50;;
11151;SDS011;5630;49.342;10.802;2022-08-03T13:40:43;3.50;;;1.30;;
11151;SDS011;5630;49.342;10.802;2022-08-03T13:43:08;1.50;;;1.40;;
11151;SDS011;5630;49.342;10.802;2022-08-03T13:45:34;3.07;;;1.40;;
11151;SDS011;5630;49.342;10.802;2022-08-03T13:48:00;1.33;;;1.20;;
11151;SDS011;5630;49.342;10.802;2022-08-03T13:50:25;2.27;;;1.40;;
11151;SDS011;5630;49.342;10.802;2022-08-03T13:52:51;1.60;;;1.50;;
11151;SDS011;5630;49.342;10.802;2022-08-03T13:55:17;2.80;;;1.60;;
11151;SDS011;5630;49.342;10.802;2022-08-03T13:57:42;2.13;;;1.33;;
11151;SDS011;5630;49.342;10.802;2022-08-03T14:00:08;3.17;;;1.20;;
11151;SDS011;5630;49.342;10.802;2022-08-03T14:02:34;2.27;;;1.30;;
11151;SDS011;5630;49.342;10.802;2022-08-03T14:05:00;2.83;;;1.30;;
11151;SDS011;5630;49.342;10.802;2022-08-03T14:07:25;2.20;;;1.40;;
11151;SDS011;5630;49.342;10.802;2022-08-03T14:09:51;1.30;;;1.20;;
11151;SDS011;5630;49.342;10.802;2022-08-03T14:12:16;1.40;;;1.17;;
11151;SDS011;5630;49.342;10.802;2022-08-03T14:14:42;3.00;;;1.40;;
11151;SDS011;5630;49.342;10.802;2022-08-03T14:17:08;1.60;;;1.50;;
11151;SDS011;5630;49.342;10.802;2022-08-03T14:19:33;2.13;;;1.40;;
11151;SDS011;5630;49.342;10.802;2022-08-03T14:21:59;3.83;;;1.70;;
11151;SDS011;5630;49.342;10.802;2022-08-03T14:24:24;2.30;;;1.37;;
11151;SDS011;5630;49.342;10.802;2022-08-03T14:26:50;1.77;;;1.20;;
11151;SDS011;5630;49.342;10.802;2022-08-03T14:29:15;3.40;;;1.30;;
11151;SDS011;5630;49.342;10.802;2022-08-03T14:31:41;2.87;;;1.50;;
11151;SDS011;5630;49.342;10.802;2022-08-03T14:34:06;2.70;;;1.30;;
11151;SDS011;5630;49.342;10.802;2022-08-03T14:36:32;7.77;;;1.33;;
11151;SDS011;5630;49.342;10.802;2022-08-03T14:38:57;3.83;;;1.10;;
11151;SDS011;5630;49.342;10.802;2022-08-03T14:41:23;1.43;;;1.33;;
11151;SDS011;5630;49.342;10.802;2022-08-03T14:43:49;3.93;;;1.40;;
11151;SDS011;5630;49.342;10.802;2022-08-03T14:46:15;3.30;;;1.33;;
11151;SDS011;5630;49.342;10.802;2022-08-03T14:48:41;3.07;;;1.20;;
11151;SDS011;5630;49.342;10.802;2022-08-03T14:51:06;5.43;;;1.57;;
11151;SDS011;5630;49.342;10.802;2022-08-03T14:53:33;1.30;;;1.20;;
11151;SDS011;5630;49.342;10.802;2022-08-03T14:55:58;5.10;;;1.47;;
11151;SDS011;5630;49.342;10.802;2022-08-03T14:58:24;1.33;;;1.10;;
11151;SDS011;5630;49.342;10.802;2022-08-03T15:00:51;3.73;;;1.23;;
11151;SDS011;5630;49.342;10.802;2022-08-03T15:03:17;1.70;;;1.40;;
11151;SDS011;5630;49.342;10.802;2022-08-03T15:05:46;1.50;;;1.30;;
11151;SDS011;5630;49.342;10.802;2022-08-03T15:08:13;3.20;;;1.37;;
11151;SDS011;5630;49.342;10.802;2022-08-03T15:10:38;1.87;;;1.33;;
11151;SDS011;5630;49.342;10.802;2022-08-03T15:13:04;2.43;;;1.37;;
11151;SDS011;5630;49.342;10.802;2022-08-03T15:15:29;1.30;;;1.20;;
11151;SDS011;5630;49.342;10.802;2022-08-03T15:17:55;4.17;;;1.30;;
11151;SDS011;5630;49.342;10.802;2022-08-03T15:20:21;2.37;;;1.60;;
11151;SDS011;5630;49.342;10.802;2022-08-03T15:22:46;1.53;;;1.43;;
11151;SDS011;5630;49.342;10.802;2022-08-03T15:25:12;1.40;;;1.30;;
11151;SDS011;5630;49.342;10.802;2022-08-03T15:27:37;1.50;;;1.27;;
11151;SDS011;5630;49.342;10.802;2022-08-03T15:30:03;1.90;;;1.47;;
11151;SDS011;5630;49.342;10.802;2022-08-03T15:32:30;1.87;;;1.40;;
11151;SDS011;5630;49.342;10.802;2022-08-03T15:34:57;1.63;;;1.50;;
11151;SDS011;5630;49.342;10.802;2022-08-03T15:37:22;5.03;;;1.70;;
11151;SDS011;5630;49.342;10.802;2022-08-03T15:39:49;3.03;;;1.50;;
11151;SDS011;5630;49.342;10.802;2022-08-03T15:42:14;2.80;;;1.20;;
11151;SDS011;5630;49.342;10.802;2022-08-03T15:44:40;2.77;;;1.37;;
11151;SDS011;5630;49.342;10.802;2022-08-03T15:47:06;1.60;;;1.40;;